createdAt,value
2022-11-27T00:00:20.783Z,43.18
2022-11-27T00:01:20.720Z,44.47
2022-11-27T00:02:20.750Z,45.12
2022-11-27T00:03:20.857Z,43.99
2022-11-27T00:04:20.704Z,45.12
2022-11-27T00:05:20.672Z,43.67
2022-11-27T00:06:20.662Z,43.02
2022-11-27T00:07:20.779Z,41.73
2022-11-27T00:08:20.636Z,41.89
2022-11-27T00:09:20.694Z,41.57
2022-11-27T00:10:20.662Z,42.06
2022-11-27T00:11:20.635Z,42.06
2022-11-27T00:12:20.652Z,42.22
2022-11-27T00:13:20.647Z,42.22
2022-11-27T00:14:20.649Z,41.89
2022-11-27T00:15:20.596Z,42.38
2022-11-27T00:16:20.654Z,49.79
2022-11-27T00:17:20.624Z,42.38
2022-11-27T00:18:20.603Z,42.22
2022-11-27T00:19:20.616Z,43.34
2022-11-27T00:20:20.562Z,42.06
2022-11-27T00:21:21.376Z,41.89
2022-11-27T00:22:20.562Z,41.73
2022-11-27T00:23:20.520Z,41.89
2022-11-27T00:24:20.540Z,42.22
2022-11-27T00:25:20.536Z,42.06
2022-11-27T00:26:20.515Z,42.22
2022-11-27T00:27:20.552Z,42.54
2022-11-27T00:28:20.494Z,42.54
2022-11-27T00:29:20.505Z,42.70
2022-11-27T00:30:20.521Z,42.22
2022-11-27T00:31:20.541Z,43.51
2022-11-27T00:32:20.524Z,44.15
2022-11-27T00:33:20.490Z,45.92
2022-11-27T00:34:20.429Z,43.83
2022-11-27T00:35:20.450Z,43.02
2022-11-27T00:36:20.429Z,42.54
2022-11-27T00:37:20.442Z,42.38
2022-11-27T00:38:20.510Z,42.70
2022-11-27T00:39:20.411Z,42.06
2022-11-27T00:40:20.410Z,42.38
2022-11-27T00:41:20.393Z,42.38
2022-11-27T00:42:20.423Z,42.86
2022-11-27T00:43:20.405Z,43.18
2022-11-27T00:44:20.367Z,42.54
2022-11-27T00:45:20.361Z,42.22
2022-11-27T00:46:25.281Z,42.54
2022-11-27T00:47:22.394Z,43.18
2022-11-27T00:48:21.368Z,42.38
2022-11-27T00:49:20.388Z,42.54
2022-11-27T00:50:20.327Z,42.54
2022-11-27T00:51:20.308Z,43.34
2022-11-27T00:52:20.353Z,42.38
2022-11-27T00:53:20.298Z,42.38
2022-11-27T00:54:22.787Z,42.38
2022-11-27T00:55:21.269Z,42.70
2022-11-27T00:56:20.264Z,42.38
2022-11-27T00:57:20.271Z,43.02
2022-11-27T00:58:20.323Z,42.06
2022-11-27T00:59:20.316Z,42.22
2022-11-27T01:00:20.281Z,41.89
2022-11-27T01:01:20.311Z,42.38
2022-11-27T01:02:20.310Z,44.47
2022-11-27T01:03:20.215Z,42.06
2022-11-27T01:04:20.817Z,42.54
2022-11-27T01:05:20.190Z,43.67
2022-11-27T01:06:20.209Z,43.67
2022-11-27T01:07:20.229Z,43.34
2022-11-27T01:08:20.215Z,43.34
2022-11-27T01:09:20.207Z,42.06
2022-11-27T01:10:20.193Z,42.38
2022-11-27T01:11:20.171Z,42.06
2022-11-27T01:12:20.160Z,42.38
2022-11-27T01:13:20.147Z,41.89
2022-11-27T01:14:20.179Z,42.38
2022-11-27T01:15:20.117Z,41.89
2022-11-27T01:16:20.299Z,43.18
2022-11-27T01:17:20.122Z,41.73
2022-11-27T01:18:20.132Z,42.86
2022-11-27T01:19:20.159Z,41.57
2022-11-27T01:20:20.128Z,41.57
2022-11-27T01:21:20.097Z,43.02
2022-11-27T01:22:20.100Z,41.73
2022-11-27T01:23:20.069Z,41.89
2022-11-27T01:24:20.058Z,41.41
2022-11-27T01:25:21.943Z,41.41
2022-11-27T01:26:22.084Z,41.41
2022-11-27T01:27:20.113Z,41.57
2022-11-27T01:28:20.038Z,41.73
2022-11-27T01:29:20.005Z,41.89
2022-11-27T01:30:20.014Z,41.89
2022-11-27T01:31:20.098Z,42.22
2022-11-27T01:32:20.108Z,41.57
2022-11-27T01:33:19.961Z,41.73
2022-11-27T01:34:19.973Z,43.99
2022-11-27T01:35:19.958Z,41.41
2022-11-27T01:36:19.956Z,42.70
2022-11-27T01:37:19.996Z,43.02
2022-11-27T01:38:19.952Z,42.54
2022-11-27T01:39:19.945Z,42.70
2022-11-27T01:40:19.970Z,42.86
2022-11-27T01:41:19.928Z,41.25
2022-11-27T01:42:19.985Z,40.93
2022-11-27T01:43:19.925Z,41.25
2022-11-27T01:44:19.928Z,41.41
2022-11-27T01:45:19.902Z,41.09
2022-11-27T01:46:19.902Z,41.09
2022-11-27T01:47:20.875Z,41.25
2022-11-27T01:48:19.880Z,41.09
2022-11-27T01:49:19.918Z,40.77
2022-11-27T01:50:19.842Z,40.93
2022-11-27T01:51:19.852Z,41.09
2022-11-27T01:52:19.854Z,41.25
2022-11-27T01:53:19.854Z,41.09
2022-11-27T01:54:19.843Z,40.77
2022-11-27T01:55:19.809Z,41.73
2022-11-27T01:56:19.797Z,40.93
2022-11-27T01:57:19.809Z,40.93
2022-11-27T01:58:19.794Z,40.77
2022-11-27T01:59:19.797Z,41.09
2022-11-27T02:00:19.829Z,40.77
2022-11-27T02:01:19.816Z,40.93
2022-11-27T02:02:19.844Z,41.25
2022-11-27T02:03:19.811Z,40.93
2022-11-27T02:04:19.746Z,40.77
2022-11-27T02:05:19.754Z,40.77
2022-11-27T02:06:19.810Z,40.77
2022-11-27T02:07:19.777Z,41.25
2022-11-27T02:08:19.735Z,42.38
2022-11-27T02:09:19.699Z,42.70
2022-11-27T02:10:19.765Z,42.86
2022-11-27T02:11:19.765Z,42.38
2022-11-27T02:12:19.716Z,42.54
2022-11-27T02:13:19.721Z,41.25
2022-11-27T02:14:19.680Z,41.09
2022-11-27T02:15:19.672Z,41.73
2022-11-27T02:16:19.736Z,41.25
2022-11-27T02:17:19.689Z,40.77
2022-11-27T02:18:19.638Z,40.77
2022-11-27T02:19:19.686Z,41.09
2022-11-27T02:20:19.713Z,43.51
2022-11-27T02:21:19.662Z,41.09
2022-11-27T02:22:19.625Z,40.93
2022-11-27T02:23:19.596Z,41.09
2022-11-27T02:24:19.616Z,41.09
2022-11-27T02:25:23.942Z,41.25
2022-11-27T02:26:20.606Z,41.57
2022-11-27T02:27:19.607Z,40.77
2022-11-27T02:28:19.607Z,40.93
2022-11-27T02:29:19.567Z,40.61
2022-11-27T02:30:19.585Z,40.93
2022-11-27T02:31:19.687Z,41.25
2022-11-27T02:32:19.553Z,41.41
2022-11-27T02:33:51.513Z,41.57
2022-11-27T02:34:21.723Z,49.31
2022-11-27T02:35:19.519Z,41.89
2022-11-27T02:36:19.555Z,40.44
2022-11-27T02:37:19.507Z,40.61
2022-11-27T02:38:19.602Z,42.70
2022-11-27T02:39:19.507Z,42.70
2022-11-27T02:40:19.495Z,42.70
2022-11-27T02:41:19.465Z,42.70
2022-11-27T02:42:19.553Z,43.18
2022-11-27T02:43:20.364Z,41.25
2022-11-27T02:44:19.487Z,41.57
2022-11-27T02:45:19.475Z,40.77
2022-11-27T02:46:19.484Z,40.44
2022-11-27T02:47:19.436Z,41.25
2022-11-27T02:48:19.501Z,40.44
2022-11-27T02:49:19.412Z,40.12
2022-11-27T02:50:20.383Z,40.61
2022-11-27T02:51:19.401Z,40.61
2022-11-27T02:52:19.390Z,40.44
2022-11-27T02:53:19.395Z,40.44
2022-11-27T02:54:19.370Z,40.77
2022-11-27T02:55:19.367Z,40.77
2022-11-27T02:56:19.390Z,40.77
2022-11-27T02:57:19.352Z,41.41
2022-11-27T02:58:19.436Z,41.09
2022-11-27T02:59:19.359Z,40.93
2022-11-27T03:00:19.324Z,40.61
2022-11-27T03:01:19.395Z,40.44
2022-11-27T03:02:19.522Z,40.44
2022-11-27T03:03:19.407Z,41.73
2022-11-27T03:04:19.299Z,40.77
2022-11-27T03:05:19.290Z,40.44
2022-11-27T03:06:19.287Z,40.28
2022-11-27T03:07:19.354Z,40.44
2022-11-27T03:08:19.256Z,42.54
2022-11-27T03:09:19.266Z,42.54
2022-11-27T03:10:19.237Z,42.70
2022-11-27T03:11:19.242Z,42.38
2022-11-27T03:12:19.265Z,40.28
2022-11-27T03:13:19.231Z,40.44
2022-11-27T03:14:19.303Z,40.44
2022-11-27T03:15:19.215Z,40.61
2022-11-27T03:16:19.280Z,40.61
2022-11-27T03:17:19.219Z,40.77
2022-11-27T03:18:19.215Z,40.44
2022-11-27T03:19:19.195Z,40.44
2022-11-27T03:20:19.192Z,40.44
2022-11-27T03:21:19.201Z,40.44
2022-11-27T03:22:19.218Z,40.61
2022-11-27T03:23:19.195Z,40.61
2022-11-27T03:24:19.149Z,40.61
2022-11-27T03:25:19.130Z,40.93
2022-11-27T03:26:19.848Z,40.77
2022-11-27T03:27:19.155Z,40.44
2022-11-27T03:28:19.129Z,40.44
2022-11-27T03:29:19.108Z,40.44
2022-11-27T03:30:19.185Z,40.93
2022-11-27T03:31:19.114Z,40.61
2022-11-27T03:32:19.089Z,40.61
2022-11-27T03:33:19.089Z,40.61
2022-11-27T03:34:20.211Z,40.93
2022-11-27T03:35:20.046Z,41.09
2022-11-27T03:36:19.047Z,41.41
2022-11-27T03:37:19.058Z,40.77
2022-11-27T03:38:19.062Z,40.77
2022-11-27T03:39:19.050Z,40.77
2022-11-27T03:40:19.023Z,42.54
2022-11-27T03:41:19.007Z,42.54
2022-11-27T03:42:19.026Z,42.70
2022-11-27T03:43:18.994Z,42.54
2022-11-27T03:44:19.019Z,40.61
2022-11-27T03:45:19.783Z,40.77
2022-11-27T03:46:19.097Z,40.61
2022-11-27T03:47:19.036Z,40.44
2022-11-27T04:04:03.932Z,40.77
2022-11-27T04:05:03.865Z,41.25
2022-11-27T04:06:05.002Z,41.73
2022-11-27T04:07:05.014Z,41.73
2022-11-27T04:08:05.048Z,41.89
2022-11-27T04:09:05.035Z,41.73
2022-11-27T04:10:04.999Z,42.06
2022-11-27T04:11:04.971Z,43.18
2022-11-27T04:12:04.975Z,43.34
2022-11-27T04:13:04.963Z,43.67
2022-11-27T04:14:04.951Z,43.99
2022-11-27T04:15:04.939Z,42.06
2022-11-27T04:16:05.028Z,41.25
2022-11-27T04:17:04.931Z,41.25
2022-11-27T04:18:04.932Z,41.57
2022-11-27T04:19:05.006Z,41.41
2022-11-27T04:20:04.897Z,41.57
2022-11-27T04:21:04.926Z,41.57
2022-11-27T04:22:04.906Z,41.89
2022-11-27T04:23:04.875Z,41.73
2022-11-27T04:24:04.886Z,41.57
2022-11-27T04:25:04.870Z,41.57
2022-11-27T04:26:04.864Z,41.25
2022-11-27T04:27:04.837Z,41.41
2022-11-27T04:28:04.893Z,41.73
2022-11-27T04:29:04.907Z,41.41
2022-11-27T04:30:04.821Z,41.41
2022-11-27T04:31:04.857Z,41.25
2022-11-27T04:32:04.816Z,41.25
2022-11-27T04:33:04.799Z,42.22
2022-11-27T04:34:04.809Z,41.57
2022-11-27T04:35:04.901Z,41.73
2022-11-27T04:36:04.785Z,42.22
2022-11-27T04:37:04.784Z,41.89
2022-11-27T04:38:04.773Z,42.22
2022-11-27T04:39:04.775Z,42.54
2022-11-27T04:40:04.775Z,41.25
2022-11-27T04:41:04.744Z,41.57
2022-11-27T04:42:04.726Z,43.02
2022-11-27T04:43:04.731Z,43.83
2022-11-27T04:44:04.715Z,42.70
2022-11-27T04:45:04.783Z,43.18
2022-11-27T04:46:04.690Z,41.73
2022-11-27T04:47:04.805Z,41.09
2022-11-27T04:48:04.699Z,41.25
2022-11-27T04:49:04.686Z,41.41
2022-11-27T04:50:04.675Z,41.41
2022-11-27T04:51:04.761Z,41.25
2022-11-27T04:52:05.683Z,41.41
2022-11-27T04:53:04.654Z,41.73
2022-11-27T04:54:04.658Z,41.73
2022-11-27T04:55:04.638Z,41.89
2022-11-27T04:56:04.651Z,41.57
2022-11-27T04:57:04.630Z,41.25
2022-11-27T04:58:04.621Z,41.25
2022-11-27T04:59:04.610Z,41.41
2022-11-27T05:00:04.664Z,41.57
2022-11-27T05:01:05.692Z,41.41
2022-11-27T05:02:04.618Z,41.73
2022-11-27T05:03:04.679Z,41.41
2022-11-27T05:04:04.575Z,41.57
2022-11-27T05:05:04.563Z,40.93
2022-11-27T05:06:04.551Z,40.93
2022-11-27T05:07:04.619Z,41.57
2022-11-27T05:08:04.577Z,41.57
2022-11-27T05:09:04.564Z,40.93
2022-11-27T05:10:04.526Z,40.93
2022-11-27T05:11:04.548Z,42.86
2022-11-27T05:12:04.509Z,43.34
2022-11-27T05:13:04.546Z,43.83
2022-11-27T05:14:04.515Z,43.18
2022-11-27T05:15:04.897Z,41.25
2022-11-27T05:16:05.576Z,40.77
2022-11-27T05:17:04.478Z,40.77
2022-11-27T05:18:04.471Z,40.77
2022-11-27T05:19:04.497Z,40.61
2022-11-27T05:20:04.463Z,41.09
2022-11-27T05:21:04.483Z,46.25
2022-11-27T05:22:04.457Z,42.38
2022-11-27T05:23:04.508Z,41.89
2022-11-27T05:24:04.455Z,41.09
2022-11-27T05:25:04.438Z,41.09
2022-11-27T05:26:04.443Z,41.57
2022-11-27T05:27:04.402Z,42.06
2022-11-27T05:28:04.411Z,41.25
2022-11-27T05:29:04.398Z,41.73
2022-11-27T05:30:04.397Z,41.09
2022-11-27T05:31:04.446Z,40.93
2022-11-27T05:32:04.388Z,41.25
2022-11-27T05:33:04.358Z,40.93
2022-11-27T05:34:05.121Z,41.09
2022-11-27T05:35:04.340Z,41.09
2022-11-27T05:36:04.351Z,40.93
2022-11-27T05:37:04.339Z,40.93
2022-11-27T05:38:04.393Z,41.09
2022-11-27T05:39:04.411Z,40.77
2022-11-27T05:40:04.309Z,42.06
2022-11-27T05:41:04.423Z,42.70
2022-11-27T05:42:04.289Z,42.54
2022-11-27T05:43:04.326Z,43.02
2022-11-27T05:44:04.264Z,43.34
2022-11-27T05:45:04.282Z,43.18
2022-11-27T05:46:04.293Z,42.38
2022-11-27T05:47:04.440Z,40.93
2022-11-27T05:48:04.287Z,40.93
2022-11-27T05:49:04.277Z,40.77
2022-11-27T05:50:04.313Z,40.77
2022-11-27T05:51:04.239Z,40.77
2022-11-27T05:52:04.251Z,40.61
2022-11-27T05:53:04.244Z,42.54
2022-11-27T05:54:04.197Z,40.61
2022-11-27T05:55:04.281Z,40.77
2022-11-27T05:56:36.090Z,40.93
2022-11-27T05:57:04.200Z,42.38
2022-11-27T05:58:04.175Z,41.09
2022-11-27T05:59:04.164Z,41.09
2022-11-27T06:00:04.184Z,41.57
2022-11-27T06:01:04.181Z,41.09
2022-11-27T06:02:04.189Z,41.89
2022-11-27T06:03:04.239Z,43.02
2022-11-27T06:04:04.133Z,41.89
2022-11-27T06:05:04.153Z,41.73
2022-11-27T06:06:04.134Z,40.77
2022-11-27T06:07:04.122Z,40.77
2022-11-27T06:08:04.096Z,40.61
2022-11-27T06:09:06.813Z,40.61
2022-11-27T06:10:06.107Z,40.93
2022-11-27T06:11:04.162Z,41.25
2022-11-27T06:12:04.065Z,41.57
2022-11-27T06:13:04.055Z,42.70
2022-11-27T06:14:04.045Z,42.54
2022-11-27T06:15:04.097Z,42.86
2022-11-27T06:16:04.089Z,43.18
2022-11-27T06:17:04.067Z,40.77
2022-11-27T06:18:04.038Z,40.77
2022-11-27T06:19:04.010Z,41.09
2022-11-27T06:20:04.036Z,40.93
2022-11-27T06:21:04.029Z,40.77
2022-11-27T06:22:04.000Z,41.57
2022-11-27T06:23:03.981Z,41.09
2022-11-27T06:24:04.627Z,40.93
2022-11-27T06:25:04.027Z,41.09
2022-11-27T06:26:04.000Z,40.93
2022-11-27T06:27:04.047Z,41.09
2022-11-27T06:28:03.942Z,41.57
2022-11-27T06:29:03.925Z,42.22
2022-11-27T06:30:04.918Z,41.09
2022-11-27T06:31:04.051Z,44.15
2022-11-27T06:32:04.047Z,41.57
2022-11-27T06:33:03.983Z,41.89
2022-11-27T06:34:03.927Z,41.57
2022-11-27T06:35:03.895Z,40.93
2022-11-27T06:36:03.883Z,41.73
2022-11-27T06:37:08.074Z,42.22
2022-11-27T06:38:04.858Z,41.41
2022-11-27T06:39:03.881Z,45.12
2022-11-27T06:40:03.880Z,41.41
2022-11-27T06:41:03.853Z,41.09
2022-11-27T06:42:03.868Z,41.41
2022-11-27T06:43:03.925Z,43.18
2022-11-27T06:44:03.857Z,43.51
2022-11-27T06:45:03.862Z,43.18
2022-11-27T06:46:03.930Z,42.86
2022-11-27T06:47:03.843Z,40.77
2022-11-27T06:48:03.872Z,42.22
2022-11-27T06:49:03.813Z,42.06
2022-11-27T06:50:04.999Z,44.15
2022-11-27T06:51:03.792Z,43.67
2022-11-27T06:52:04.662Z,43.02
2022-11-27T06:53:03.797Z,44.63
2022-11-27T06:54:03.752Z,41.41
2022-11-27T06:55:03.849Z,41.09
2022-11-27T06:56:03.783Z,41.09
2022-11-27T06:57:03.743Z,41.41
2022-11-27T06:58:04.775Z,42.70
2022-11-27T06:59:03.839Z,49.95
2022-11-27T07:00:03.851Z,43.67
2022-11-27T07:01:03.816Z,41.25
2022-11-27T07:02:03.822Z,41.73
2022-11-27T07:03:03.737Z,41.25
2022-11-27T07:04:03.760Z,40.77
2022-11-27T07:05:03.684Z,43.34
2022-11-27T07:06:04.697Z,41.89
2022-11-27T07:07:03.799Z,41.89
2022-11-27T07:08:03.772Z,41.57
2022-11-27T07:09:03.640Z,41.73
2022-11-27T07:10:03.620Z,46.73
2022-11-27T07:11:03.620Z,41.25
2022-11-27T07:12:03.629Z,41.25
2022-11-27T07:13:03.624Z,41.25
2022-11-27T07:14:03.646Z,42.86
2022-11-27T07:15:04.512Z,44.31
2022-11-27T07:16:04.700Z,43.99
2022-11-27T07:17:03.611Z,43.51
2022-11-27T07:18:03.574Z,43.34
2022-11-27T07:19:03.573Z,41.73
2022-11-27T07:20:03.588Z,44.96
2022-11-27T07:21:03.591Z,45.28
2022-11-27T07:22:03.609Z,42.22
2022-11-27T07:23:03.641Z,43.18
2022-11-27T07:24:03.618Z,43.67
2022-11-27T07:25:03.594Z,43.51
2022-11-27T07:26:03.522Z,42.70
2022-11-27T07:27:03.523Z,42.38
2022-11-27T07:28:03.508Z,41.57
2022-11-27T07:29:03.542Z,44.96
2022-11-27T07:30:03.510Z,41.41
2022-11-27T07:31:03.574Z,41.57
2022-11-27T07:32:03.508Z,41.25
2022-11-27T07:33:04.531Z,40.77
2022-11-27T07:34:06.905Z,41.25
2022-11-27T07:35:04.605Z,45.92
2022-11-27T07:36:03.492Z,42.22
2022-11-27T07:37:04.149Z,45.76
2022-11-27T07:38:03.474Z,42.06
2022-11-27T07:39:03.444Z,44.47
2022-11-27T07:40:03.844Z,41.73
2022-11-27T07:41:04.473Z,51.08
2022-11-27T07:42:36.552Z,42.54
2022-11-27T07:43:05.418Z,42.22
2022-11-27T07:44:04.148Z,43.99
2022-11-27T07:45:03.381Z,43.34
2022-11-27T07:46:03.517Z,45.44
2022-11-27T07:47:03.468Z,49.47
2022-11-27T07:48:03.362Z,47.21
2022-11-27T07:49:03.377Z,45.44
2022-11-27T07:50:03.373Z,42.22
2022-11-27T07:51:03.326Z,50.43
2022-11-27T07:52:03.346Z,45.76
2022-11-27T07:53:03.335Z,41.89
2022-11-27T07:54:03.330Z,43.02
2022-11-27T07:55:03.338Z,43.51
2022-11-27T07:56:03.316Z,53.98
2022-11-27T07:57:03.400Z,42.86
2022-11-27T07:58:03.467Z,43.02
2022-11-27T07:59:03.306Z,42.70
2022-11-27T08:00:03.286Z,42.22
2022-11-27T08:01:03.393Z,41.73
2022-11-27T08:02:03.257Z,43.99
2022-11-27T08:03:03.360Z,43.02
2022-11-27T08:04:03.322Z,42.70
2022-11-27T08:05:06.893Z,49.31
2022-11-27T08:06:04.308Z,43.18
2022-11-27T08:07:03.243Z,46.41
2022-11-27T08:08:03.330Z,42.70
2022-11-27T08:09:03.278Z,43.51
2022-11-27T08:10:03.209Z,43.83
2022-11-27T08:11:03.200Z,45.92
2022-11-27T08:12:03.202Z,44.31
2022-11-27T08:13:03.220Z,44.15
2022-11-27T08:14:03.267Z,46.25
2022-11-27T08:15:03.174Z,47.70
2022-11-27T08:16:03.245Z,44.63
2022-11-27T08:17:03.185Z,49.31
2022-11-27T08:18:03.166Z,45.60
2022-11-27T08:19:03.273Z,46.25
2022-11-27T08:20:03.158Z,46.25
2022-11-27T08:21:03.156Z,43.51
2022-11-27T08:22:03.163Z,44.15
2022-11-27T08:23:03.395Z,42.38
2022-11-27T08:24:03.187Z,44.79
2022-11-27T08:25:03.080Z,43.51
2022-11-27T08:26:03.111Z,43.34
2022-11-27T08:27:03.107Z,46.89
2022-11-27T08:28:03.148Z,52.53
2022-11-27T08:29:03.079Z,46.25
2022-11-27T08:30:03.110Z,45.92
2022-11-27T08:31:03.082Z,43.51
2022-11-27T08:32:03.136Z,42.86
2022-11-27T08:33:34.945Z,43.02
2022-11-27T08:34:03.050Z,45.60
2022-11-27T08:35:08.287Z,43.18
2022-11-27T08:36:04.073Z,42.22
2022-11-27T08:37:03.083Z,42.06
2022-11-27T08:38:02.988Z,43.18
2022-11-27T08:39:03.008Z,50.11
2022-11-27T08:40:03.045Z,44.63
2022-11-27T08:41:02.989Z,49.15
2022-11-27T08:42:02.958Z,45.76
2022-11-27T08:43:02.936Z,45.28
2022-11-27T08:44:06.794Z,47.21
2022-11-27T08:45:03.912Z,44.79
2022-11-27T08:46:03.025Z,44.63
2022-11-27T08:47:02.910Z,44.31
2022-11-27T08:48:02.906Z,57.20
2022-11-27T08:49:02.912Z,45.28
2022-11-27T08:50:02.898Z,53.82
2022-11-27T08:51:02.877Z,44.47
2022-11-27T08:52:02.946Z,43.18
2022-11-27T08:53:02.915Z,43.99
2022-11-27T08:54:02.858Z,46.25
2022-11-27T08:55:02.857Z,54.30
2022-11-27T08:56:02.839Z,54.95
2022-11-27T08:57:02.837Z,51.24
2022-11-27T08:58:02.845Z,44.15
2022-11-27T08:59:02.855Z,43.18
2022-11-27T09:00:02.857Z,53.82
2022-11-27T09:01:02.948Z,54.62
2022-11-27T09:02:02.837Z,46.89
2022-11-27T09:03:02.791Z,51.24
2022-11-27T09:04:02.840Z,50.11
2022-11-27T09:05:02.794Z,53.01
2022-11-27T09:06:02.772Z,49.31
2022-11-27T09:07:02.768Z,50.27
2022-11-27T09:08:02.883Z,43.18
2022-11-27T09:09:02.748Z,47.70
2022-11-27T09:10:02.748Z,46.25
2022-11-27T09:11:03.754Z,47.70
2022-11-27T09:12:02.701Z,48.98
2022-11-27T09:13:02.724Z,45.44
2022-11-27T09:14:02.746Z,46.57
2022-11-27T09:15:02.700Z,48.82
2022-11-27T09:16:02.728Z,45.12
2022-11-27T09:17:02.720Z,43.18
2022-11-27T09:18:02.684Z,45.60
2022-11-27T09:19:02.672Z,43.99
2022-11-27T09:20:02.686Z,42.86
2022-11-27T09:21:02.625Z,47.05
2022-11-27T09:22:03.674Z,43.02
2022-11-27T09:23:02.647Z,43.02
2022-11-27T09:24:02.697Z,42.70
2022-11-27T09:25:02.637Z,45.12
2022-11-27T09:26:02.612Z,42.54
2022-11-27T09:27:02.599Z,44.79
2022-11-27T09:28:02.587Z,44.79
2022-11-27T09:29:02.623Z,46.89
2022-11-27T09:30:02.606Z,58.49
2022-11-27T09:31:02.567Z,49.79
2022-11-27T09:32:02.756Z,44.79
2022-11-27T09:33:02.551Z,56.07
2022-11-27T09:34:02.542Z,47.53
2022-11-27T09:35:02.555Z,49.95
2022-11-27T09:36:02.518Z,43.51
2022-11-27T09:37:02.563Z,43.34
2022-11-27T09:38:02.562Z,48.02
2022-11-27T09:39:02.546Z,45.60
2022-11-27T09:40:02.615Z,47.53
2022-11-27T09:41:03.377Z,46.08
2022-11-27T09:42:03.475Z,49.95
2022-11-27T09:43:02.589Z,48.34
2022-11-27T09:44:02.484Z,46.08
2022-11-27T09:45:02.452Z,47.37
2022-11-27T09:46:02.483Z,45.76
2022-11-27T09:47:02.551Z,47.21
2022-11-27T09:48:02.438Z,52.05
2022-11-27T09:49:02.440Z,45.76
2022-11-27T09:50:02.410Z,44.96
2022-11-27T09:51:02.438Z,44.96
2022-11-27T09:52:03.268Z,49.15
2022-11-27T09:53:02.420Z,53.66
2022-11-27T09:54:02.389Z,52.21
2022-11-27T09:55:02.379Z,44.31
2022-11-27T09:56:02.443Z,52.37
2022-11-27T09:57:02.367Z,47.86
2022-11-27T09:58:02.378Z,43.34
2022-11-27T09:59:02.339Z,52.69
2022-11-27T10:00:02.339Z,42.70
2022-11-27T10:01:02.318Z,45.92
2022-11-27T10:02:02.469Z,52.69
2022-11-27T10:03:02.515Z,49.63
2022-11-27T10:04:02.327Z,52.53
2022-11-27T10:05:18.249Z,46.08
2022-11-27T10:06:04.286Z,44.79
2022-11-27T10:07:02.305Z,43.83
2022-11-27T10:08:06.698Z,44.31
2022-11-27T10:09:03.284Z,44.31
2022-11-27T10:10:02.412Z,48.02
2022-11-27T10:11:02.266Z,47.86
2022-11-27T10:12:02.349Z,47.86
2022-11-27T10:13:02.245Z,47.86
2022-11-27T10:14:03.033Z,47.70
2022-11-27T10:15:02.252Z,46.57
2022-11-27T10:16:02.222Z,51.88
2022-11-27T10:17:02.272Z,56.72
2022-11-27T10:18:02.192Z,48.98
2022-11-27T10:19:02.208Z,45.92
2022-11-27T10:20:02.182Z,50.11
2022-11-27T10:21:02.182Z,53.33
2022-11-27T10:22:02.177Z,51.40
2022-11-27T10:23:02.165Z,51.24
2022-11-27T10:24:02.183Z,47.37
2022-11-27T10:25:02.158Z,47.70
2022-11-27T10:26:02.149Z,47.86
2022-11-27T10:27:02.150Z,48.02
2022-11-27T10:28:02.190Z,49.79
2022-11-27T10:29:02.104Z,45.92
2022-11-27T10:30:02.175Z,50.43
2022-11-27T10:31:02.093Z,49.47
2022-11-27T10:32:02.119Z,53.82
2022-11-27T10:33:02.186Z,54.46
2022-11-27T10:34:02.075Z,44.47
2022-11-27T10:35:02.081Z,54.46
2022-11-27T10:36:02.095Z,44.79
2022-11-27T10:37:02.094Z,45.60
2022-11-27T10:38:06.543Z,53.66
2022-11-27T10:39:04.026Z,47.05
2022-11-27T10:40:02.016Z,53.17
2022-11-27T10:41:02.003Z,50.27
2022-11-27T10:42:02.048Z,47.05
2022-11-27T10:43:01.995Z,48.50
2022-11-27T10:44:02.072Z,45.60
2022-11-27T10:45:02.026Z,46.08
2022-11-27T10:46:02.162Z,49.31
2022-11-27T10:47:02.013Z,46.57
2022-11-27T10:48:02.003Z,51.08
2022-11-27T10:49:02.014Z,53.17
2022-11-27T10:50:01.948Z,52.69
2022-11-27T10:51:01.961Z,60.91
2022-11-27T10:52:01.946Z,58.17
2022-11-27T10:53:01.912Z,45.12
2022-11-27T10:54:01.929Z,46.25
2022-11-27T10:55:01.939Z,48.18
2022-11-27T10:56:01.973Z,54.14
2022-11-27T10:57:01.886Z,46.08
2022-11-27T10:58:01.884Z,47.86
2022-11-27T10:59:01.871Z,51.08
2022-11-27T11:00:01.952Z,45.44
2022-11-27T11:01:01.961Z,52.85
2022-11-27T11:02:01.967Z,48.82
2022-11-27T11:03:01.920Z,50.92
2022-11-27T11:04:10.170Z,52.85
2022-11-27T11:05:32.439Z,46.57
2022-11-27T11:06:19.886Z,46.41
2022-11-27T11:07:03.809Z,52.85
2022-11-27T11:08:01.864Z,53.01
2022-11-27T11:09:01.805Z,47.70
2022-11-27T11:10:01.821Z,49.95
2022-11-27T11:11:01.785Z,49.15
2022-11-27T11:12:01.785Z,60.91
2022-11-27T11:13:01.798Z,56.40
2022-11-27T11:14:01.801Z,52.37
2022-11-27T11:15:01.773Z,49.63
2022-11-27T11:16:01.836Z,53.98
2022-11-27T11:17:01.798Z,45.12
2022-11-27T11:18:01.747Z,47.70
2022-11-27T11:19:01.735Z,50.60
2022-11-27T11:20:01.728Z,49.31
2022-11-27T11:21:01.696Z,46.25
2022-11-27T11:22:01.683Z,44.79
2022-11-27T11:23:01.695Z,55.11
2022-11-27T11:24:01.684Z,47.53
2022-11-27T11:25:01.670Z,47.86
2022-11-27T11:26:01.662Z,54.62
2022-11-27T11:27:01.675Z,58.49
2022-11-27T11:28:01.673Z,45.44
2022-11-27T11:29:01.644Z,45.44
2022-11-27T11:30:01.753Z,54.14
2022-11-27T11:31:01.615Z,47.86
2022-11-27T11:32:01.797Z,53.66
2022-11-27T11:33:01.599Z,45.76
2022-11-27T11:34:01.596Z,47.21
2022-11-27T11:35:01.863Z,46.41
2022-11-27T11:36:01.656Z,53.66
2022-11-27T11:37:01.578Z,49.47
2022-11-27T11:38:01.748Z,49.95
2022-11-27T11:39:01.574Z,48.98
2022-11-27T11:40:01.584Z,49.47
2022-11-27T11:41:01.604Z,49.63
2022-11-27T11:42:01.555Z,46.25
2022-11-27T11:43:01.536Z,45.60
2022-11-27T11:44:01.552Z,49.47
2022-11-27T11:45:01.530Z,54.95
2022-11-27T11:46:01.606Z,49.63
2022-11-27T11:47:01.559Z,46.08
2022-11-27T11:48:01.692Z,51.56
2022-11-27T11:49:01.485Z,53.66
2022-11-27T11:50:01.470Z,50.43
2022-11-27T11:51:01.479Z,50.11
2022-11-27T11:52:01.491Z,53.33
2022-11-27T11:53:01.448Z,53.17
2022-11-27T11:54:01.439Z,48.02
2022-11-27T11:55:01.487Z,50.27
2022-11-27T11:56:01.401Z,51.24
2022-11-27T11:57:02.447Z,51.88
2022-11-27T11:58:01.617Z,48.50
2022-11-27T11:59:01.412Z,50.43
2022-11-27T12:00:01.389Z,45.76
2022-11-27T12:02:03.415Z,45.28
2022-11-27T12:03:02.410Z,46.89
2022-11-27T12:04:07.291Z,45.28
2022-11-27T12:05:02.479Z,48.18
2022-11-27T12:06:01.365Z,46.73
2022-11-27T12:07:01.354Z,46.89
2022-11-27T12:08:01.489Z,47.86
2022-11-27T12:09:01.341Z,46.25
2022-11-27T12:10:01.327Z,47.86
2022-11-27T12:11:01.353Z,52.53
2022-11-27T12:12:01.345Z,52.69
2022-11-27T12:13:01.307Z,60.75
2022-11-27T12:14:01.275Z,49.47
2022-11-27T12:15:01.323Z,49.63
2022-11-27T12:16:01.269Z,52.85
2022-11-27T12:17:01.363Z,52.05
2022-11-27T12:18:01.336Z,51.88
2022-11-27T12:19:02.240Z,53.50
2022-11-27T12:20:01.288Z,54.62
2022-11-27T12:21:01.331Z,51.24
2022-11-27T12:22:01.242Z,45.28
2022-11-27T12:23:01.224Z,50.60
2022-11-27T12:24:01.216Z,49.31
2022-11-27T12:25:01.234Z,45.76
2022-11-27T12:26:01.190Z,46.08
2022-11-27T12:27:01.198Z,52.05
2022-11-27T12:28:01.219Z,57.36
2022-11-27T12:29:01.234Z,45.44
2022-11-27T12:30:01.176Z,48.18
2022-11-27T12:31:01.151Z,48.34
2022-11-27T12:32:01.241Z,54.79
2022-11-27T12:33:01.166Z,45.44
2022-11-27T12:34:01.196Z,53.01
2022-11-27T12:35:01.148Z,49.79
2022-11-27T12:36:01.130Z,49.95
2022-11-27T12:37:01.196Z,53.33
2022-11-27T12:38:01.107Z,50.60
2022-11-27T12:39:01.158Z,54.30
2022-11-27T12:40:01.100Z,47.05
2022-11-27T12:41:01.085Z,56.07
2022-11-27T12:42:01.104Z,53.82
2022-11-27T12:43:01.089Z,50.60
2022-11-27T12:44:01.102Z,48.18
2022-11-27T12:45:01.042Z,54.95
2022-11-27T12:46:01.814Z,48.34
2022-11-27T12:47:01.039Z,45.92
2022-11-27T12:48:01.014Z,46.73
2022-11-27T12:49:01.086Z,48.66
2022-11-27T12:50:01.041Z,56.72
2022-11-27T12:51:01.021Z,53.50
2022-11-27T12:52:01.119Z,51.08
2022-11-27T12:53:01.078Z,54.46
2022-11-27T12:54:01.018Z,49.79
2022-11-27T12:55:00.992Z,48.50
2022-11-27T12:56:00.983Z,58.01
2022-11-27T12:57:00.956Z,53.33
2022-11-27T12:58:00.958Z,51.24
2022-11-27T12:59:00.960Z,50.27
2022-11-27T13:00:00.944Z,52.53
2022-11-27T13:01:00.994Z,59.62
2022-11-27T13:02:01.124Z,59.78
2022-11-27T13:03:01.047Z,53.66
2022-11-27T13:04:00.902Z,46.25
2022-11-27T13:05:00.934Z,46.73
2022-11-27T13:06:00.895Z,47.53
2022-11-27T13:07:00.911Z,47.21
2022-11-27T13:08:00.921Z,48.02
2022-11-27T13:09:00.947Z,45.60